createdAt,value
2023-03-19T00:01:38.021Z,6.55
2023-03-19T00:04:07.330Z,6.54
2023-03-19T00:06:37.045Z,6.52
2023-03-19T00:09:07.171Z,6.50
2023-03-19T00:11:36.324Z,6.47
2023-03-19T00:14:06.795Z,6.44
2023-03-19T00:16:37.171Z,6.40
2023-03-19T00:19:06.799Z,6.37
2023-03-19T00:21:36.756Z,6.34
2023-03-19T00:24:07.405Z,6.32
2023-03-19T00:26:37.796Z,6.30
2023-03-19T00:29:07.858Z,6.28
2023-03-19T00:31:37.370Z,6.25
2023-03-19T00:34:06.684Z,6.23
2023-03-19T00:36:37.292Z,6.20
2023-03-19T00:39:09.025Z,6.18
2023-03-19T00:41:38.212Z,6.16
2023-03-19T00:44:07.442Z,6.14
2023-03-19T00:46:37.160Z,6.12
2023-03-19T00:49:06.833Z,6.10
2023-03-19T00:51:36.980Z,6.08
2023-03-19T00:54:06.402Z,6.06
2023-03-19T00:56:35.938Z,6.02
2023-03-19T00:59:06.723Z,6.00
2023-03-19T01:01:35.998Z,5.97
2023-03-19T01:04:06.074Z,5.95
2023-03-19T01:06:36.102Z,5.94
2023-03-19T01:09:05.902Z,5.91
2023-03-19T01:11:35.324Z,5.90
2023-03-19T01:14:04.824Z,5.88
2023-03-19T01:16:34.237Z,5.87
2023-03-19T01:19:06.114Z,5.85
2023-03-19T01:21:35.976Z,5.81
2023-03-19T01:24:05.954Z,5.78
2023-03-19T01:26:36.222Z,5.74
2023-03-19T01:29:17.081Z,5.69
2023-03-19T01:31:46.334Z,5.66
2023-03-19T01:34:37.115Z,5.60
2023-03-19T01:37:15.395Z,5.55
2023-03-19T01:39:45.508Z,5.53
2023-03-19T01:42:17.044Z,5.51
2023-03-19T01:44:59.351Z,5.50
2023-03-19T01:47:58.889Z,5.45
2023-03-19T01:50:42.740Z,5.45
2023-03-19T01:53:40.151Z,5.42
2023-03-19T01:56:20.835Z,5.40
2023-03-19T01:59:06.854Z,5.39
2023-03-19T02:01:59.368Z,5.36
2023-03-19T02:04:31.607Z,5.36
2023-03-19T02:07:04.252Z,5.36
2023-03-19T02:09:33.943Z,5.35
2023-03-19T02:12:04.191Z,5.35
2023-03-19T02:14:33.488Z,5.36
2023-03-19T02:17:03.502Z,5.35
2023-03-19T02:19:40.405Z,5.34
2023-03-19T02:22:12.009Z,5.32
2023-03-19T02:24:48.467Z,5.30
2023-03-19T02:27:22.518Z,5.28
2023-03-19T02:29:53.250Z,5.28
2023-03-19T02:32:23.080Z,5.26
2023-03-19T02:34:52.256Z,5.23
2023-03-19T02:37:28.149Z,5.22
2023-03-19T02:40:04.107Z,5.20
2023-03-19T02:42:33.591Z,5.17
2023-03-19T02:45:02.777Z,5.16
2023-03-19T02:47:32.026Z,5.13
2023-03-19T02:50:02.228Z,5.12
2023-03-19T02:52:31.533Z,5.11
2023-03-19T02:55:00.908Z,5.10
2023-03-19T02:57:30.128Z,5.10
2023-03-19T02:59:59.301Z,5.09
2023-03-19T03:02:28.557Z,5.07
2023-03-19T03:04:58.693Z,5.06
2023-03-19T03:07:27.873Z,5.04
2023-03-19T03:09:58.280Z,5.02
2023-03-19T03:12:28.009Z,5.01
2023-03-19T03:14:57.140Z,4.99
2023-03-19T03:17:28.033Z,4.99
2023-03-19T03:19:57.189Z,4.97
2023-03-19T03:22:27.148Z,4.95
2023-03-19T03:24:56.379Z,4.95
2023-03-19T03:27:26.624Z,4.95
2023-03-19T03:29:57.009Z,4.92
2023-03-19T03:32:26.947Z,4.91
2023-03-19T03:34:56.794Z,4.91
2023-03-19T03:37:26.042Z,4.93
2023-03-19T03:39:55.809Z,4.92
2023-03-19T03:42:26.276Z,4.92
2023-03-19T03:44:55.430Z,4.93
2023-03-19T03:47:24.956Z,4.93
2023-03-19T03:49:54.152Z,4.92
2023-03-19T03:52:23.353Z,4.90
2023-03-19T03:54:52.622Z,4.89
2023-03-19T03:57:21.787Z,4.86
2023-03-19T03:59:52.320Z,4.86
2023-03-19T04:02:22.073Z,4.90
2023-03-19T04:04:52.148Z,4.92
2023-03-19T04:07:22.273Z,4.92
2023-03-19T04:09:58.687Z,4.93
2023-03-19T04:12:27.939Z,4.93
2023-03-19T04:14:57.169Z,4.93
2023-03-19T04:17:26.470Z,4.93
2023-03-19T04:19:56.769Z,4.91
2023-03-19T04:22:27.356Z,4.91
2023-03-19T04:24:57.219Z,4.90
2023-03-19T04:27:26.525Z,4.91
2023-03-19T04:29:55.790Z,4.91
2023-03-19T04:32:25.405Z,4.91
2023-03-19T04:34:56.268Z,4.91
2023-03-19T04:37:25.624Z,4.90
2023-03-19T04:39:55.366Z,4.92
2023-03-19T04:42:24.680Z,4.93
2023-03-19T04:45:00.805Z,4.94
2023-03-19T04:47:30.774Z,4.93
2023-03-19T04:50:01.170Z,4.93
2023-03-19T04:52:32.772Z,4.93
2023-03-19T04:55:01.978Z,4.91
2023-03-19T04:57:32.138Z,4.89
2023-03-19T05:00:02.359Z,4.87
2023-03-19T05:02:32.456Z,4.84
2023-03-19T05:05:03.252Z,4.81
2023-03-19T05:07:33.146Z,4.80
2023-03-19T05:10:03.370Z,4.78
2023-03-19T05:12:32.841Z,4.76
2023-03-19T05:15:05.374Z,4.75
2023-03-19T05:17:43.087Z,4.75
2023-03-19T05:20:38.855Z,4.74
2023-03-19T05:23:12.195Z,4.75
2023-03-19T05:25:52.470Z,4.75
2023-03-19T05:28:25.824Z,4.76
2023-03-19T05:30:55.009Z,4.80
2023-03-19T05:33:33.497Z,4.84
2023-03-19T05:36:03.011Z,4.87
2023-03-19T05:38:43.053Z,4.91
2023-03-19T05:41:15.252Z,4.94
2023-03-19T05:43:56.425Z,4.95
2023-03-19T05:46:41.760Z,4.95
2023-03-19T05:49:12.562Z,5.01
2023-03-19T05:51:41.749Z,5.08
2023-03-19T05:54:10.987Z,5.13
2023-03-19T05:56:59.340Z,5.16
2023-03-19T05:59:44.881Z,5.19
2023-03-19T06:02:43.425Z,5.20
2023-03-19T06:05:27.340Z,5.25
2023-03-19T06:08:00.960Z,5.29
2023-03-19T06:10:51.296Z,5.34
2023-03-19T06:13:21.651Z,5.39
2023-03-19T06:15:59.044Z,5.47
2023-03-19T06:18:36.074Z,5.51
2023-03-19T06:21:09.796Z,5.57
2023-03-19T06:23:39.655Z,5.63
2023-03-19T06:26:09.809Z,5.70
2023-03-19T06:28:49.937Z,5.70
2023-03-19T06:31:19.395Z,5.75
2023-03-19T06:34:08.793Z,5.79
2023-03-19T06:36:43.138Z,5.83
2023-03-19T06:39:13.634Z,5.89
2023-03-19T06:41:42.821Z,5.95
2023-03-19T06:44:24.633Z,5.99
2023-03-19T06:46:53.925Z,6.02
2023-03-19T06:49:23.411Z,6.07
2023-03-19T06:51:52.640Z,6.12
2023-03-19T06:54:22.012Z,6.17
2023-03-19T06:56:51.805Z,6.22
2023-03-19T06:59:21.540Z,6.29
2023-03-19T07:01:50.970Z,6.34
2023-03-19T07:04:20.223Z,6.39
2023-03-19T07:06:49.551Z,6.42
2023-03-19T07:09:18.714Z,6.47
2023-03-19T07:11:49.270Z,6.53
2023-03-19T07:14:18.430Z,6.58
2023-03-19T07:16:47.638Z,6.62
2023-03-19T07:19:16.912Z,6.67
2023-03-19T07:21:46.760Z,6.70
2023-03-19T07:24:16.449Z,6.72
2023-03-19T07:26:45.930Z,6.77
2023-03-19T07:29:15.083Z,6.84
2023-03-19T07:31:45.373Z,6.89
2023-03-19T07:34:14.562Z,6.92
2023-03-19T07:36:43.714Z,6.97
2023-03-19T07:39:13.099Z,7.01
2023-03-19T07:41:44.403Z,7.05
2023-03-19T07:44:16.857Z,7.08
2023-03-19T07:46:46.014Z,7.11
2023-03-19T07:49:15.983Z,7.16
2023-03-19T07:51:45.192Z,7.20
2023-03-19T07:54:14.342Z,7.23
2023-03-19T07:56:44.067Z,7.26
2023-03-19T07:59:13.216Z,7.32
2023-03-19T08:01:42.397Z,7.38
2023-03-19T08:04:12.369Z,7.43
2023-03-19T08:06:41.905Z,7.47
2023-03-19T08:09:11.350Z,7.52
2023-03-19T08:11:40.636Z,7.59
2023-03-19T08:14:09.829Z,7.65
2023-03-19T08:16:39.632Z,7.72
2023-03-19T08:19:10.245Z,7.80
2023-03-19T08:21:39.373Z,7.88
2023-03-19T08:24:09.476Z,7.95
2023-03-19T08:26:38.645Z,8.05
2023-03-19T08:29:08.089Z,8.15
2023-03-19T08:31:38.392Z,8.26
2023-03-19T08:34:10.295Z,8.37
2023-03-19T08:36:39.467Z,8.49
2023-03-19T08:39:09.194Z,8.59
2023-03-19T08:41:39.284Z,8.70
2023-03-19T08:44:08.519Z,8.81
2023-03-19T08:46:37.789Z,8.90
2023-03-19T08:49:07.344Z,9.01
2023-03-19T08:51:36.500Z,9.10
2023-03-19T08:54:05.963Z,9.21
2023-03-19T08:56:35.122Z,9.32
2023-03-19T08:59:04.269Z,9.41
2023-03-19T09:01:33.509Z,9.50
2023-03-19T09:04:02.675Z,9.56
2023-03-19T09:06:32.141Z,9.66
2023-03-19T09:09:01.343Z,9.75
2023-03-19T09:11:30.916Z,9.84
2023-03-19T09:14:00.205Z,9.93
2023-03-19T09:16:30.801Z,10.00
2023-03-19T09:19:00.007Z,10.05
2023-03-19T09:21:29.144Z,10.13
2023-03-19T09:23:58.312Z,10.21
2023-03-19T09:26:27.475Z,10.30
2023-03-19T09:28:57.206Z,10.38
2023-03-19T09:31:29.429Z,10.46
2023-03-19T09:33:59.120Z,10.55
2023-03-19T09:36:28.304Z,10.62
2023-03-19T09:38:57.510Z,10.74
2023-03-19T09:41:34.843Z,10.88
2023-03-19T09:44:05.873Z,11.04
2023-03-19T09:46:42.836Z,11.21
2023-03-19T09:49:23.472Z,11.35
2023-03-19T09:51:55.408Z,11.50
2023-03-19T09:54:37.439Z,11.65
2023-03-19T09:57:08.755Z,11.81
2023-03-19T09:59:38.458Z,11.94
2023-03-19T10:02:29.250Z,12.05
2023-03-19T10:05:09.150Z,12.20
2023-03-19T10:07:54.048Z,12.34
2023-03-19T10:10:45.289Z,12.46
2023-03-19T10:13:26.710Z,12.55
2023-03-19T10:16:00.330Z,12.63
2023-03-19T10:18:34.904Z,12.72
2023-03-19T10:21:08.495Z,12.81
2023-03-19T10:23:49.348Z,12.89
2023-03-19T10:26:29.195Z,12.96
2023-03-19T10:29:05.702Z,13.00
2023-03-19T10:31:46.023Z,13.04
2023-03-19T10:34:32.314Z,13.08
2023-03-19T10:37:04.687Z,13.14
2023-03-19T10:39:37.039Z,13.19
2023-03-19T10:42:21.158Z,13.24
2023-03-19T10:44:54.052Z,13.29
2023-03-19T10:47:26.774Z,13.36
2023-03-19T10:49:58.485Z,13.44
2023-03-19T10:52:33.026Z,13.53
2023-03-19T10:55:07.327Z,13.61
2023-03-19T10:57:36.600Z,13.69
2023-03-19T11:00:16.423Z,13.77
2023-03-19T11:02:50.978Z,13.82
2023-03-19T11:05:31.669Z,13.89
2023-03-19T11:08:03.977Z,13.99
2023-03-19T11:10:35.472Z,14.09
2023-03-19T11:13:16.019Z,14.18
2023-03-19T11:15:48.760Z,14.26
2023-03-19T11:18:22.241Z,14.33
2023-03-19T11:20:57.670Z,14.42
2023-03-19T11:23:30.138Z,14.51
2023-03-19T11:26:02.273Z,14.56
2023-03-19T11:28:34.447Z,14.60
2023-03-19T11:31:12.424Z,14.67
2023-03-19T11:34:09.424Z,14.70
2023-03-19T11:36:48.999Z,14.71
2023-03-19T11:39:27.590Z,14.73
2023-03-19T11:42:11.468Z,14.76
2023-03-19T11:44:51.498Z,14.77
2023-03-19T11:47:31.935Z,14.79
2023-03-19T11:50:18.804Z,14.85
2023-03-19T11:53:01.288Z,14.89
2023-03-19T11:55:36.741Z,14.94
2023-03-19T11:58:34.703Z,14.96
2023-03-19T12:01:12.770Z,15.00
2023-03-19T12:04:20.573Z,15.06
2023-03-19T12:07:01.805Z,15.12
2023-03-19T12:09:43.188Z,15.15
2023-03-19T12:12:26.504Z,15.20
2023-03-19T12:15:13.942Z,15.22
2023-03-19T12:17:58.833Z,15.26
2023-03-19T12:20:34.731Z,15.28
2023-03-19T12:23:24.887Z,15.27
2023-03-19T12:26:04.571Z,15.29
2023-03-19T12:28:39.023Z,15.34
2023-03-19T12:31:29.336Z,15.39
2023-03-19T12:34:14.939Z,15.46
2023-03-19T12:36:52.741Z,15.51
2023-03-19T12:39:26.286Z,15.54
2023-03-19T12:41:58.510Z,15.58
2023-03-19T12:44:33.102Z,15.63
2023-03-19T12:47:07.083Z,15.66
2023-03-19T12:49:42.620Z,15.72
2023-03-19T12:52:23.056Z,15.79
2023-03-19T12:54:59.426Z,15.83
2023-03-19T12:57:36.003Z,15.79
2023-03-19T13:00:11.921Z,15.77
2023-03-19T13:02:47.591Z,15.79
2023-03-19T13:05:25.682Z,15.84
2023-03-19T13:08:02.213Z,15.88
2023-03-19T13:10:32.063Z,15.88
2023-03-19T13:13:11.923Z,15.89
2023-03-19T13:15:46.849Z,15.90
2023-03-19T13:18:29.536Z,15.93
2023-03-19T13:21:16.254Z,15.96
2023-03-19T13:23:48.318Z,15.93
2023-03-19T13:26:19.184Z,15.91
2023-03-19T13:29:02.408Z,15.92
2023-03-19T13:31:36.019Z,15.91
2023-03-19T13:34:08.500Z,15.91
2023-03-19T13:36:39.760Z,15.89
2023-03-19T13:39:16.213Z,15.87
2023-03-19T13:42:23.385Z,15.90
2023-03-19T13:44:56.549Z,15.88
2023-03-19T13:47:43.370Z,15.90
2023-03-19T13:50:27.488Z,15.94
2023-03-19T13:53:22.150Z,15.95
2023-03-19T13:55:58.202Z,15.93
2023-03-19T13:58:47.070Z,15.96
2023-03-19T14:01:44.721Z,15.98
2023-03-19T14:04:28.692Z,15.98
2023-03-19T14:07:12.816Z,15.94
2023-03-19T14:09:48.113Z,15.92
2023-03-19T14:12:31.771Z,15.92
2023-03-19T14:15:05.260Z,15.94
2023-03-19T14:17:36.695Z,15.97
2023-03-19T14:20:28.040Z,15.98
2023-03-19T14:23:20.666Z,15.91
2023-03-19T14:26:02.976Z,15.84
2023-03-19T14:28:46.117Z,15.85
2023-03-19T14:31:23.635Z,15.84
2023-03-19T14:33:59.510Z,15.79
2023-03-19T14:36:30.502Z,15.80
2023-03-19T14:39:03.326Z,15.79
2023-03-19T14:41:39.829Z,15.79
2023-03-19T14:44:43.490Z,15.77
2023-03-19T14:47:29.494Z,15.75
2023-03-19T14:50:22.445Z,15.76
2023-03-19T14:52:57.038Z,15.75
2023-03-19T14:55:35.229Z,15.75
2023-03-19T14:58:05.302Z,15.78
2023-03-19T15:00:45.254Z,15.77
2023-03-19T15:03:31.063Z,15.78
2023-03-19T15:06:02.080Z,15.73
2023-03-19T15:08:33.879Z,15.70
2023-03-19T15:11:29.357Z,15.67
2023-03-19T15:14:12.376Z,15.63
2023-03-19T15:16:53.644Z,15.62
2023-03-19T15:19:27.795Z,15.61
2023-03-19T15:22:06.044Z,15.59
2023-03-19T15:24:35.679Z,15.56
2023-03-19T15:27:22.332Z,15.54
2023-03-19T15:29:52.459Z,15.52
2023-03-19T15:33:07.687Z,15.50
2023-03-19T15:35:30.092Z,15.45
2023-03-19T15:38:02.708Z,15.42
2023-03-19T15:40:33.628Z,15.39
2023-03-19T15:43:03.385Z,15.37
2023-03-19T15:45:34.386Z,15.34
2023-03-19T15:48:09.388Z,15.32
2023-03-19T15:50:43.900Z,15.29
2023-03-19T15:53:17.113Z,15.25
2023-03-19T15:55:50.697Z,15.23
2023-03-19T15:58:23.695Z,15.19
2023-03-19T16:00:54.294Z,15.15
2023-03-19T16:03:26.812Z,15.11
2023-03-19T16:06:02.779Z,15.08
2023-03-19T16:08:32.804Z,15.03
2023-03-19T16:11:26.254Z,15.00
2023-03-19T16:13:58.477Z,14.92
2023-03-19T16:16:32.498Z,14.88
2023-03-19T16:19:02.171Z,14.83
2023-03-19T16:21:36.246Z,14.79
2023-03-19T16:24:14.435Z,14.75
2023-03-19T16:26:44.701Z,14.70
2023-03-19T16:29:26.261Z,14.66
2023-03-19T16:32:01.287Z,14.60
2023-03-19T16:34:39.200Z,14.53
2023-03-19T16:37:41.295Z,14.46
2023-03-19T16:40:42.735Z,14.35
2023-03-19T16:43:21.365Z,14.27
2023-03-19T16:46:04.279Z,14.19
2023-03-19T16:48:33.509Z,14.13
2023-03-19T16:51:03.520Z,14.08
2023-03-19T16:53:33.044Z,14.04
2023-03-19T16:56:03.040Z,14.00
2023-03-19T16:58:34.357Z,13.96
2023-03-19T17:01:05.173Z,13.90
2023-03-19T17:03:34.387Z,13.85
2023-03-19T17:06:05.127Z,13.81
2023-03-19T17:08:34.618Z,13.75
2023-03-19T17:11:04.165Z,13.70
2023-03-19T17:13:35.266Z,13.67
2023-03-19T17:16:07.024Z,13.62
2023-03-19T17:18:38.555Z,13.55
2023-03-19T17:21:12.305Z,13.50
2023-03-19T17:23:41.761Z,13.46
2023-03-19T17:26:15.446Z,13.40
2023-03-19T17:28:45.210Z,13.35
2023-03-19T17:31:23.299Z,13.30
2023-03-19T17:33:55.932Z,13.25
2023-03-19T17:36:25.275Z,13.19
2023-03-19T17:38:55.425Z,13.14
2023-03-19T17:41:24.873Z,13.10
2023-03-19T17:43:54.052Z,13.06
2023-03-19T17:46:26.629Z,13.02
2023-03-19T17:48:56.565Z,12.97
2023-03-19T17:51:26.208Z,12.94
2023-03-19T17:53:56.604Z,12.90
2023-03-19T17:56:26.924Z,12.86
2023-03-19T17:58:56.128Z,12.83
2023-03-19T18:01:28.154Z,12.80
2023-03-19T18:03:59.755Z,12.75
2023-03-19T18:06:33.601Z,12.71
2023-03-19T18:09:03.215Z,12.67
2023-03-19T18:11:32.422Z,12.64
2023-03-19T18:14:01.595Z,12.60
2023-03-19T18:16:32.886Z,12.57
2023-03-19T18:19:03.722Z,12.53
2023-03-19T18:21:33.164Z,12.50
2023-03-19T18:24:02.873Z,12.46
2023-03-19T18:26:32.093Z,12.43
2023-03-19T18:29:01.367Z,12.40
2023-03-19T18:31:30.799Z,12.37
2023-03-19T18:34:03.763Z,12.34
2023-03-19T18:36:34.854Z,12.30
2023-03-19T18:39:06.552Z,12.28
2023-03-19T18:41:35.901Z,12.25
2023-03-19T18:44:09.009Z,12.21
2023-03-19T18:46:40.663Z,12.18
2023-03-19T18:49:19.364Z,12.15
2023-03-19T18:52:01.650Z,12.11
2023-03-19T18:54:32.471Z,12.06
2023-03-19T18:57:02.363Z,12.02
2023-03-19T18:59:33.950Z,12.01
2023-03-19T19:02:18.930Z,11.98
2023-03-19T19:04:48.607Z,11.94
2023-03-19T19:07:18.116Z,11.91
2023-03-19T19:09:47.393Z,11.89
2023-03-19T19:12:18.522Z,11.85
2023-03-19T19:14:48.820Z,11.83
2023-03-19T19:17:20.756Z,11.80
2023-03-19T19:19:50.095Z,11.76
2023-03-19T19:22:20.338Z,11.72
2023-03-19T19:24:49.861Z,11.69
2023-03-19T19:27:22.486Z,11.66
2023-03-19T19:29:52.591Z,11.62
2023-03-19T19:32:24.934Z,11.59
2023-03-19T19:34:54.834Z,11.55
2023-03-19T19:37:24.369Z,11.51
2023-03-19T19:39:53.892Z,11.49
2023-03-19T19:42:24.087Z,11.45
2023-03-19T19:44:55.709Z,11.42
2023-03-19T19:47:25.402Z,11.38
2023-03-19T19:49:55.906Z,11.35
2023-03-19T19:52:25.562Z,11.32
2023-03-19T19:54:55.119Z,11.28
2023-03-19T19:57:25.376Z,11.24
2023-03-19T19:59:56.281Z,11.20
2023-03-19T20:02:27.899Z,11.16
2023-03-19T20:04:58.285Z,11.13
2023-03-19T20:07:27.719Z,11.09
2023-03-19T20:09:57.019Z,11.06
2023-03-19T20:12:29.730Z,11.02
2023-03-19T20:14:59.511Z,10.99
2023-03-19T20:17:29.402Z,10.96
2023-03-19T20:19:59.352Z,10.93
2023-03-19T20:22:29.539Z,10.90
2023-03-19T20:24:59.348Z,10.87
2023-03-19T20:27:32.790Z,10.84
2023-03-19T20:30:02.717Z,10.80
2023-03-19T20:32:35.796Z,10.76
2023-03-19T20:35:15.143Z,10.73
2023-03-19T20:37:44.495Z,10.69
2023-03-19T20:40:15.290Z,10.65
2023-03-19T20:42:48.092Z,10.62
2023-03-19T20:45:20.456Z,10.59
2023-03-19T20:47:52.237Z,10.56
2023-03-19T20:50:24.306Z,10.53
2023-03-19T20:52:56.373Z,10.49
2023-03-19T20:55:29.437Z,10.46
2023-03-19T20:58:00.061Z,10.43
2023-03-19T21:00:31.392Z,10.39
2023-03-19T21:03:02.131Z,10.36
2023-03-19T21:05:36.252Z,10.32
2023-03-19T21:08:12.769Z,10.28
2023-03-19T21:10:43.333Z,10.24
2023-03-19T21:13:17.143Z,10.20
2023-03-19T21:15:49.010Z,10.16
2023-03-19T21:18:18.271Z,10.12
2023-03-19T21:20:53.307Z,10.09
2023-03-19T21:23:27.539Z,10.03
2023-03-19T21:25:57.117Z,9.98
2023-03-19T21:28:29.374Z,9.94
2023-03-19T21:30:58.955Z,9.89
2023-03-19T21:33:31.113Z,9.82
2023-03-19T21:36:01.745Z,9.73
2023-03-19T21:38:32.349Z,9.65
2023-03-19T21:41:04.368Z,9.62
2023-03-19T21:43:36.451Z,9.60
2023-03-19T21:46:22.887Z,9.56
2023-03-19T21:48:54.319Z,9.50
2023-03-19T21:51:25.011Z,9.45
2023-03-19T21:53:54.386Z,9.41
2023-03-19T21:56:27.312Z,9.38
2023-03-19T21:58:56.475Z,9.33
2023-03-19T22:01:27.103Z,9.29
2023-03-19T22:03:57.724Z,9.25
2023-03-19T22:06:27.554Z,9.18
2023-03-19T22:08:57.047Z,9.12
2023-03-19T22:11:28.315Z,9.07
2023-03-19T22:14:03.547Z,9.03
2023-03-19T22:16:32.991Z,8.98
2023-03-19T22:19:02.452Z,8.92
2023-03-19T22:21:32.775Z,8.88
2023-03-19T22:24:01.989Z,8.85
2023-03-19T22:26:33.403Z,8.79
2023-03-19T22:29:05.446Z,8.76
2023-03-19T22:31:35.216Z,8.72
2023-03-19T22:34:04.566Z,8.67
2023-03-19T22:36:33.730Z,8.62
2023-03-19T22:39:02.929Z,8.58
2023-03-19T22:41:34.877Z,8.55
2023-03-19T22:44:07.935Z,8.49
2023-03-19T22:46:37.177Z,8.44
2023-03-19T22:49:15.667Z,8.40
2023-03-19T22:51:45.451Z,8.35
2023-03-19T22:54:15.081Z,8.31
2023-03-19T22:56:44.275Z,8.27
2023-03-19T22:59:14.073Z,8.25
2023-03-19T23:01:45.830Z,8.22
2023-03-19T23:04:25.879Z,8.18
2023-03-19T23:06:56.836Z,8.13
2023-03-19T23:09:28.851Z,8.09
2023-03-19T23:11:59.265Z,8.07
2023-03-19T23:14:30.940Z,8.05
2023-03-19T23:17:02.990Z,8.03
2023-03-19T23:19:33.658Z,8.02
2023-03-19T23:22:04.821Z,7.99
2023-03-19T23:24:34.186Z,7.97
2023-03-19T23:27:04.313Z,7.96
2023-03-19T23:29:39.239Z,7.94
2023-03-19T23:32:10.930Z,7.92
2023-03-19T23:34:56.363Z,7.92
2023-03-19T23:37:28.710Z,7.89
2023-03-19T23:39:58.303Z,7.87
2023-03-19T23:42:30.885Z,7.87
2023-03-19T23:45:03.331Z,7.86
2023-03-19T23:47:33.104Z,7.85
2023-03-19T23:50:02.292Z,7.84
2023-03-19T23:52:31.546Z,7.84
2023-03-19T23:55:01.058Z,7.82
2023-03-19T23:57:30.337Z,7.80
2023-03-19T23:59:59.983Z,7.77
